Time;durP1;ratioP1;P1;durP2;ratioP2;P2;SDS_P1;SDS_P2;PMS_P1;PMS_P2;Temp;Humidity;BMP_temperature;BMP_pressure;BME280_temperature;BME280_humidity;BME280_pressure;Samples;Min_cycle;Max_cycle;Signal;HPM_P1;HPM_P2
2020/12/04 00:00:04;;;;;;;9.57;7.60;;;26.70;62.90;;;;;;5051484;28;20233;-59
2020/12/04 00:02:35;;;;;;;8.65;7.63;;;26.70;63.00;;;;;;5070464;28;20260;-58
2020/12/04 00:05:06;;;;;;;8.88;7.43;;;26.80;63.20;;;;;;5052825;28;20233;-57
2020/12/04 00:07:36;;;;;;;8.23;7.43;;;26.70;63.00;;;;;;5063368;28;20341;-59
2020/12/04 00:10:07;;;;;;;8.27;7.47;;;26.80;63.20;;;;;;5007656;28;20231;-60
2020/12/04 00:12:40;;;;;;;8.20;7.40;;;26.70;63.00;;;;;;4995253;28;20296;-60
2020/12/04 00:15:10;;;;;;;8.95;8.15;;;26.70;63.00;;;;;;5003496;28;20234;-60
2020/12/04 00:17:41;;;;;;;8.75;7.88;;;26.80;63.20;;;;;;4998717;28;20231;-60
2020/12/04 00:20:13;;;;;;;9.50;8.27;;;26.80;63.20;;;;;;5005469;28;20235;-60
2020/12/04 00:22:44;;;;;;;10.27;9.23;;;26.80;63.10;;;;;;5010601;28;20235;-58
2020/12/04 00:25:14;;;;;;;9.05;8.18;;;26.80;63.00;;;;;;5007328;28;20231;-59
2020/12/04 00:27:48;;;;;;;8.50;7.72;;;26.80;63.20;;;;;;5012275;28;20233;-60
2020/12/04 00:30:21;;;;;;;8.73;7.93;;;26.80;63.20;;;;;;5035689;28;20234;-59
2020/12/04 00:32:52;;;;;;;11.25;8.85;;;26.80;63.30;;;;;;5039281;28;20261;-58
2020/12/04 00:35:24;;;;;;;9.05;8.15;;;26.80;63.10;;;;;;5089829;28;20276;-58
2020/12/04 00:37:55;;;;;;;10.45;8.55;;;26.80;63.00;;;;;;5100114;28;20284;-60
2020/12/04 00:40:26;;;;;;;8.95;8.05;;;26.80;63.10;;;;;;5103477;27;20269;-60
2020/12/04 00:42:56;;;;;;;8.70;7.57;;;26.80;63.20;;;;;;5110383;27;20266;-60
2020/12/04 00:45:27;;;;;;;9.77;8.57;;;26.80;63.40;;;;;;5105878;28;20231;-61
2020/12/04 00:47:57;;;;;;;9.07;8.18;;;26.90;63.50;;;;;;5107798;27;20232;-58
2020/12/04 00:50:29;;;;;;;9.73;8.85;;;26.90;63.40;;;;;;5105583;27;20686;-58
2020/12/04 00:52:59;;;;;;;10.00;9.00;;;26.90;63.20;;;;;;5113274;27;20232;-59
2020/12/04 00:55:30;;;;;;;10.32;9.15;;;27.00;63.20;;;;;;5109411;28;20251;-57
2020/12/04 00:58:01;;;;;;;9.18;8.07;;;27.00;63.20;;;;;;5102825;27;20255;-59
2020/12/04 01:00:31;;;;;;;10.07;9.07;;;27.00;63.20;;;;;;5105626;27;20239;-57
2020/12/04 01:03:02;;;;;;;8.55;7.75;;;27.10;63.00;;;;;;5114367;27;20230;-59
2020/12/04 01:05:33;;;;;;;9.52;8.63;;;27.20;63.30;;;;;;5109256;28;20318;-57
2020/12/04 01:08:04;;;;;;;10.10;9.20;;;27.20;63.00;;;;;;5106195;27;20239;-59
2020/12/04 01:10:34;;;;;;;10.68;9.57;;;27.20;62.80;;;;;;5111438;27;20228;-58
2020/12/04 01:13:04;;;;;;;11.75;10.35;;;27.20;62.70;;;;;;5105778;27;20632;-56
2020/12/04 01:15:35;;;;;;;11.32;10.23;;;27.20;62.40;;;;;;5109046;28;20242;-57
2020/12/04 01:18:06;;;;;;;10.10;9.05;;;27.20;62.20;;;;;;5109440;27;20319;-58
2020/12/04 01:20:38;;;;;;;11.02;9.30;;;27.20;62.50;;;;;;5104193;27;20238;-61
2020/12/04 01:23:09;;;;;;;10.05;9.15;;;27.30;62.70;;;;;;5106715;28;20223;-61
2020/12/04 01:25:40;;;;;;;8.90;8.05;;;27.30;62.40;;;;;;5099862;28;20235;-60
2020/12/04 01:28:10;;;;;;;9.60;8.70;;;27.30;62.60;;;;;;5101584;27;20224;-58
2020/12/04 01:30:41;;;;;;;9.45;8.55;;;27.30;62.50;;;;;;5110132;27;20223;-60
2020/12/04 01:33:12;;;;;;;9.68;8.77;;;27.40;62.60;;;;;;5102921;27;20229;-60
2020/12/04 01:35:44;;;;;;;10.93;9.80;;;27.50;62.40;;;;;;5093099;28;20231;-60
2020/12/04 01:38:15;;;;;;;11.07;8.77;;;27.50;62.00;;;;;;5105619;27;20256;-59
2020/12/04 01:40:45;;;;;;;11.60;10.10;;;27.50;61.90;;;;;;5093848;28;20243;-60
2020/12/04 01:43:16;;;;;;;9.68;8.65;;;27.60;61.80;;;;;;5101927;27;20240;-57
2020/12/04 01:45:47;;;;;;;10.45;9.35;;;27.60;61.80;;;;;;5100608;27;20231;-59
2020/12/04 01:48:17;;;;;;;10.95;9.23;;;27.60;61.60;;;;;;5094317;28;20708;-59
2020/12/04 01:50:49;;;;;;;10.98;9.85;;;27.60;61.70;;;;;;5093415;27;20240;-60
2020/12/04 01:53:20;;;;;;;12.40;9.68;;;27.70;61.40;;;;;;5106658;27;20223;-61
2020/12/04 01:55:52;;;;;;;11.23;10.13;;;27.70;61.30;;;;;;5104406;28;20224;-59
2020/12/04 01:58:22;;;;;;;10.27;9.38;;;27.70;61.10;;;;;;5110508;27;20324;-61
2020/12/04 02:00:52;;;;;;;10.43;9.50;;;27.70;61.20;;;;;;5105260;27;20227;-59
2020/12/04 02:03:23;;;;;;;9.82;8.93;;;27.80;61.30;;;;;;5107286;27;20232;-60
2020/12/04 02:05:59;;;;;;;9.93;8.98;;;27.80;60.90;;;;;;5100833;27;20228;-60
2020/12/04 02:08:31;;;;;;;10.18;9.18;;;27.90;61.00;;;;;;5100890;27;20246;-60
2020/12/04 02:11:07;;;;;;;9.80;8.85;;;27.90;61.00;;;;;;5105650;27;20227;-61
2020/12/04 02:13:38;;;;;;;9.18;8.38;;;28.00;61.40;;;;;;5107535;27;20231;-60
2020/12/04 02:16:08;;;;;;;8.98;8.18;;;28.00;61.60;;;;;;5101142;27;20296;-59
2020/12/04 02:18:40;;;;;;;10.07;9.18;;;28.10;61.70;;;;;;5103713;27;20372;-61
2020/12/04 02:21:12;;;;;;;11.10;9.45;;;28.20;61.50;;;;;;5103143;27;20281;-61
2020/12/04 02:23:45;;;;;;;10.30;9.15;;;28.30;61.40;;;;;;5102222;27;20246;-61
2020/12/04 02:26:16;;;;;;;10.48;9.48;;;28.30;61.10;;;;;;5053006;28;20237;-59
2020/12/04 02:28:47;;;;;;;10.45;9.45;;;28.40;61.40;;;;;;5062814;28;20233;-59
2020/12/04 02:31:21;;;;;;;10.07;9.13;;;28.50;60.50;;;;;;5069770;28;21879;-60
2020/12/04 02:33:52;;;;;;;10.13;9.13;;;28.50;60.30;;;;;;5049190;28;20312;-59
2020/12/04 02:36:23;;;;;;;10.73;9.73;;;28.60;60.30;;;;;;5056180;28;20226;-60
2020/12/04 02:38:55;;;;;;;10.88;9.00;;;28.60;59.90;;;;;;5052801;28;20225;-58
2020/12/04 02:41:26;;;;;;;10.45;9.35;;;28.70;60.00;;;;;;5056390;28;20340;-60
2020/12/04 02:43:57;;;;;;;10.07;9.05;;;28.70;60.00;;;;;;5059695;28;20616;-61
2020/12/04 02:46:28;;;;;;;10.05;9.15;;;28.80;60.00;;;;;;5049381;28;20771;-60
2020/12/04 02:48:58;;;;;;;12.02;9.60;;;28.90;59.90;;;;;;5060186;28;20579;-61
2020/12/04 02:51:30;;;;;;;11.88;10.70;;;28.90;59.60;;;;;;5052737;28;20232;-62
2020/12/04 02:54:01;;;;;;;10.05;9.07;;;29.00;59.00;;;;;;5061071;28;20225;-61
2020/12/04 02:56:32;;;;;;;9.13;8.23;;;29.00;59.10;;;;;;5059668;28;20240;-61
2020/12/04 02:59:02;;;;;;;9.82;8.98;;;29.10;59.30;;;;;;5098500;28;20267;-62
2020/12/04 03:01:33;;;;;;;10.18;9.18;;;29.10;59.30;;;;;;5101615;28;20232;-61
2020/12/04 03:04:03;;;;;;;9.48;8.50;;;29.10;59.00;;;;;;5100601;28;20227;-61
2020/12/04 03:06:35;;;;;;;9.80;8.52;;;29.20;59.40;;;;;;5100901;28;20275;-62
2020/12/04 03:09:06;;;;;;;12.02;9.38;;;29.20;59.40;;;;;;5102556;28;20258;-62
2020/12/04 03:11:36;;;;;;;10.75;9.52;;;29.30;59.60;;;;;;5101141;27;20235;-61
2020/12/04 03:14:07;;;;;;;9.63;8.73;;;29.40;59.10;;;;;;5094836;28;20254;-62
2020/12/04 03:16:38;;;;;;;10.10;9.10;;;29.40;59.10;;;;;;5101948;28;20267;-62
2020/12/04 03:19:09;;;;;;;8.85;8.05;;;29.50;58.80;;;;;;5104251;28;20219;-62
2020/12/04 03:21:41;;;;;;;10.95;9.85;;;29.50;58.60;;;;;;5104074;28;20232;-61
2020/12/04 03:24:11;;;;;;;11.98;8.50;;;29.60;58.30;;;;;;5098142;27;20597;-61
2020/12/04 03:26:42;;;;;;;10.40;9.15;;;29.60;58.70;;;;;;5095237;28;20346;-62
2020/12/04 03:29:13;;;;;;;12.25;10.05;;;29.70;58.40;;;;;;5102431;28;20702;-61
2020/12/04 03:31:43;;;;;;;10.43;9.35;;;29.70;58.10;;;;;;5105051;27;20256;-62
2020/12/04 03:34:14;;;;;;;10.23;9.32;;;29.70;58.10;;;;;;5107673;28;20310;-61
2020/12/04 03:36:46;;;;;;;10.15;9.15;;;29.70;58.00;;;;;;5105020;28;20297;-61
2020/12/04 03:39:16;;;;;;;9.68;8.73;;;29.70;58.10;;;;;;5105080;27;20232;-62
2020/12/04 03:41:47;;;;;;;9.73;8.82;;;29.80;58.40;;;;;;5102228;28;20262;-61
2020/12/04 03:44:18;;;;;;;10.32;9.30;;;29.80;58.20;;;;;;5097362;28;20243;-61
2020/12/04 03:46:49;;;;;;;10.55;9.63;;;29.80;58.20;;;;;;5102147;28;20236;-62
2020/12/04 03:49:19;;;;;;;10.30;9.27;;;29.80;58.20;;;;;;5110390;27;20275;-66
2020/12/04 03:51:51;;;;;;;10.35;9.45;;;29.80;58.30;;;;;;5105120;27;20684;-61
2020/12/04 03:54:22;;;;;;;12.93;9.25;;;29.80;58.50;;;;;;5102391;28;20219;-60
2020/12/04 03:56:52;;;;;;;11.35;10.23;;;29.90;58.80;;;;;;5112597;27;20231;-60
2020/12/04 03:59:23;;;;;;;10.43;9.48;;;29.90;58.00;;;;;;5100251;27;20223;-59
2020/12/04 04:01:53;;;;;;;10.93;9.93;;;29.90;57.80;;;;;;5118770;27;20246;-61
2020/12/04 04:04:24;;;;;;;13.02;10.65;;;29.90;57.70;;;;;;5095087;27;20225;-61
2020/12/04 04:06:56;;;;;;;9.98;9.07;;;29.90;57.50;;;;;;5097145;28;20717;-61
2020/12/04 04:09:27;;;;;;;11.50;9.68;;;29.90;57.60;;;;;;5104852;27;20251;-59
2020/12/04 04:11:58;;;;;;;9.60;8.77;;;29.90;57.70;;;;;;5109427;27;20954;-62
2020/12/04 04:14:28;;;;;;;11.60;10.07;;;29.90;57.80;;;;;;5103925;28;20390;-61
2020/12/04 04:16:58;;;;;;;10.52;9.45;;;29.90;57.90;;;;;;5104664;27;20243;-59
2020/12/04 04:19:30;;;;;;;11.25;10.23;;;30.00;57.90;;;;;;5103856;27;20345;-61
2020/12/04 04:22:02;;;;;;;9.05;8.25;;;30.00;57.80;;;;;;5104650;28;20284;-61
2020/12/04 04:24:33;;;;;;;10.23;9.18;;;30.00;58.00;;;;;;5128299;27;20231;-61
2020/12/04 04:27:03;;;;;;;11.63;10.55;;;30.10;58.10;;;;;;5128833;27;20299;-60
2020/12/04 04:29:33;;;;;;;10.95;9.98;;;30.10;57.70;;;;;;5088788;27;20220;-60
2020/12/04 04:32:04;;;;;;;10.85;9.85;;;30.10;57.60;;;;;;5099107;28;20224;-60
2020/12/04 04:34:34;;;;;;;10.43;9.43;;;30.20;57.40;;;;;;5108257;28;20667;-61
2020/12/04 04:37:06;;;;;;;9.85;8.95;;;30.30;57.50;;;;;;5111230;28;20307;-60
2020/12/04 04:39:38;;;;;;;9.45;8.60;;;30.30;57.60;;;;;;5111285;28;20228;-61
2020/12/04 04:42:08;;;;;;;9.63;8.50;;;30.40;57.80;;;;;;5120808;27;20236;-61
2020/12/04 04:44:40;;;;;;;11.02;9.93;;;30.50;57.90;;;;;;5119106;27;20224;-61
2020/12/04 04:47:13;;;;;;;9.63;8.75;;;30.60;57.30;;;;;;5090447;28;20232;-61
2020/12/04 04:49:46;;;;;;;11.15;10.15;;;30.70;57.70;;;;;;5089624;28;20228;-60
2020/12/04 04:52:20;;;;;;;9.73;8.65;;;30.80;56.80;;;;;;5108362;28;20721;-61
2020/12/04 04:54:51;;;;;;;10.88;9.77;;;30.80;56.80;;;;;;5124071;27;20599;-60
2020/12/04 04:57:22;;;;;;;10.43;9.55;;;30.90;56.40;;;;;;5131388;27;20667;-60
2020/12/04 04:59:55;;;;;;;11.55;10.45;;;31.00;56.30;;;;;;5131325;27;20227;-61
2020/12/04 05:02:25;;;;;;;10.40;8.65;;;31.00;55.90;;;;;;5111452;27;20232;-61
2020/12/04 05:04:56;;;;;;;11.05;8.35;;;31.00;56.50;;;;;;5113202;27;20739;-61
2020/12/04 05:07:31;;;;;;;9.70;8.90;;;31.10;56.80;;;;;;5111873;27;20232;-60
2020/12/04 05:10:11;;;;;;;8.90;7.68;;;31.10;56.50;;;;;;5110479;28;20239;-60
2020/12/04 05:12:43;;;;;;;11.32;9.05;;;31.20;56.40;;;;;;5098549;28;20223;-59
2020/12/04 05:15:23;;;;;;;10.10;8.55;;;31.30;55.90;;;;;;5120780;27;20326;-59
2020/12/04 05:18:08;;;;;;;9.00;8.20;;;31.30;55.40;;;;;;5130840;27;20231;-59
2020/12/04 05:20:41;;;;;;;9.30;8.40;;;31.40;55.30;;;;;;5091256;27;21013;-59
2020/12/04 05:23:13;;;;;;;9.85;8.88;;;31.40;55.00;;;;;;5090290;28;20593;-57
2020/12/04 05:25:44;;;;;;;9.10;7.78;;;31.40;55.00;;;;;;5092115;28;20280;-59
2020/12/04 05:28:16;;;;;;;9.20;8.27;;;31.50;55.30;;;;;;5107541;28;20273;-60
2020/12/04 05:30:47;;;;;;;9.70;8.90;;;31.60;55.00;;;;;;5107792;28;20227;-60
2020/12/04 05:33:18;;;;;;;8.73;7.82;;;31.60;55.00;;;;;;5103672;28;20316;-60
2020/12/04 05:35:56;;;;;;;8.90;8.05;;;31.60;55.40;;;;;;5078465;28;20299;-60
2020/12/04 05:38:27;;;;;;;8.68;7.85;;;31.70;55.00;;;;;;5066767;28;20247;-59
2020/12/04 05:41:05;;;;;;;9.60;8.65;;;31.80;55.00;;;;;;5073872;28;20231;-60
2020/12/04 05:43:37;;;;;;;8.15;7.35;;;31.90;54.70;;;;;;5085930;28;20676;-60
2020/12/04 05:46:17;;;;;;;9.93;8.93;;;31.90;55.00;;;;;;5094255;28;20232;-60
2020/12/04 05:48:58;;;;;;;9.27;8.38;;;32.00;54.70;;;;;;5107046;28;20235;-61
2020/12/04 05:51:29;;;;;;;8.43;7.72;;;32.00;54.10;;;;;;5129855;27;20231;-59
2020/12/04 05:54:02;;;;;;;9.05;7.80;;;32.10;54.30;;;;;;5101425;27;20235;-61
2020/12/04 05:56:33;;;;;;;9.32;8.43;;;32.20;54.00;;;;;;5107031;27;20296;-60
2020/12/04 05:59:05;;;;;;;8.15;7.20;;;32.20;53.90;;;;;;5130104;27;20226;-60
2020/12/04 06:01:36;;;;;;;8.77;7.88;;;32.30;53.50;;;;;;5129940;27;20314;-58
2020/12/04 06:04:07;;;;;;;8.40;7.60;;;32.30;52.70;;;;;;5125676;27;20231;-60
2020/12/04 06:06:38;;;;;;;8.23;7.20;;;32.30;52.80;;;;;;5109357;27;20714;-60
2020/12/04 06:09:09;;;;;;;9.27;8.27;;;32.40;53.30;;;;;;5109441;28;20227;-61
2020/12/04 06:11:41;;;;;;;9.32;8.40;;;32.30;52.80;;;;;;5092273;28;20335;-60
2020/12/04 06:14:18;;;;;;;8.05;7.35;;;32.30;53.10;;;;;;5109336;28;20224;-62
2020/12/04 06:17:11;;;;;;;9.13;7.80;;;32.30;53.70;;;;;;5107518;28;20237;-61
2020/12/04 06:19:42;;;;;;;9.98;8.95;;;32.40;53.40;;;;;;5109263;28;20235;-60
2020/12/04 06:22:14;;;;;;;9.20;8.30;;;32.40;52.80;;;;;;5109184;28;20273;-59
2020/12/04 06:25:04;;;;;;;7.72;7.05;;;32.50;52.60;;;;;;5068686;28;20586;-60
2020/12/04 06:27:44;;;;;;;8.35;7.63;;;32.50;52.60;;;;;;5077009;28;20223;-60
2020/12/04 06:30:16;;;;;;;8.23;7.47;;;32.60;52.20;;;;;;5109329;28;20750;-59
2020/12/04 06:32:48;;;;;;;8.18;7.38;;;32.60;52.00;;;;;;5109331;28;20236;-60
2020/12/04 06:35:41;;;;;;;8.05;7.30;;;32.60;52.50;;;;;;5109284;28;20230;-60
2020/12/04 06:38:33;;;;;;;7.18;6.47;;;32.70;52.20;;;;;;5107704;28;20687;-60
2020/12/04 06:41:23;;;;;;;8.05;7.22;;;32.70;52.00;;;;;;5099791;28;20236;-60
2020/12/04 06:43:54;;;;;;;7.55;6.82;;;32.80;52.00;;;;;;5087634;28;20228;-60
2020/12/04 06:46:38;;;;;;;7.95;7.25;;;32.80;52.10;;;;;;5088438;28;20232;-60
2020/12/04 06:49:38;;;;;;;8.25;7.45;;;32.90;51.70;;;;;;5091012;28;20251;-58
2020/12/04 06:52:10;;;;;;;8.57;7.60;;;33.00;51.50;;;;;;5088017;28;20578;-60
2020/12/04 06:54:41;;;;;;;8.60;7.72;;;33.00;51.60;;;;;;5074115;28;20225;-59
2020/12/04 06:57:13;;;;;;;10.00;7.80;;;33.00;51.60;;;;;;5076280;28;20278;-61
2020/12/04 06:59:44;;;;;;;9.93;7.93;;;33.10;50.90;;;;;;5083302;28;20243;-60
2020/12/04 07:02:15;;;;;;;8.23;7.50;;;33.10;50.80;;;;;;5079526;28;20251;-58
2020/12/04 07:04:46;;;;;;;8.00;7.25;;;33.10;50.60;;;;;;5077993;28;20286;-60
2020/12/04 07:07:18;;;;;;;8.00;7.20;;;33.20;51.10;;;;;;5080352;28;20236;-59
2020/12/04 07:09:54;;;;;;;8.43;7.25;;;33.20;50.20;;;;;;5085015;28;20334;-61
2020/12/04 07:12:26;;;;;;;8.05;7.25;;;33.20;50.40;;;;;;5073696;28;20300;-60
2020/12/04 07:14:57;;;;;;;8.30;7.50;;;33.20;50.20;;;;;;5069894;28;20230;-61
2020/12/04 07:17:28;;;;;;;8.23;7.43;;;33.20;50.00;;;;;;5092937;28;20231;-61
2020/12/04 07:19:59;;;;;;;7.82;7.13;;;33.20;49.70;;;;;;5107894;28;20558;-61
2020/12/04 07:22:30;;;;;;;8.85;7.95;;;33.20;49.50;;;;;;5092444;28;20231;-61
2020/12/04 07:25:00;;;;;;;7.78;7.07;;;33.30;49.40;;;;;;5110675;28;20223;-61
2020/12/04 07:27:32;;;;;;;7.70;6.93;;;33.30;49.60;;;;;;5112399;28;20228;-61
2020/12/04 07:30:03;;;;;;;7.40;6.80;;;33.30;50.10;;;;;;5107483;28;20227;-61
2020/12/04 07:32:33;;;;;;;8.15;7.35;;;33.40;50.20;;;;;;5102427;28;20293;-58
2020/12/04 07:35:04;;;;;;;7.78;7.07;;;33.40;49.70;;;;;;5097395;27;20228;-61
2020/12/04 07:37:35;;;;;;;8.95;7.68;;;33.50;49.60;;;;;;5106303;28;20243;-61
2020/12/04 07:40:05;;;;;;;7.68;7.00;;;33.50;49.20;;;;;;5100732;28;20314;-60
2020/12/04 07:42:37;;;;;;;9.30;8.40;;;33.50;49.00;;;;;;5101713;28;20224;-61
2020/12/04 07:45:07;;;;;;;8.43;7.55;;;33.60;48.30;;;;;;5103782;28;20249;-61
2020/12/04 07:47:42;;;;;;;9.27;7.60;;;33.60;48.20;;;;;;5085487;28;20244;-61
2020/12/04 07:50:13;;;;;;;7.68;6.97;;;33.60;48.60;;;;;;5110297;28;20230;-62
2020/12/04 07:52:51;;;;;;;8.32;7.03;;;33.60;49.20;;;;;;5097374;28;20643;-62
2020/12/04 07:55:22;;;;;;;8.18;7.38;;;33.70;49.30;;;;;;5098376;28;20726;-62
2020/12/04 07:57:59;;;;;;;8.00;7.30;;;33.70;48.90;;;;;;5105368;28;20235;-62
2020/12/04 08:00:32;;;;;;;7.60;6.90;;;33.80;48.80;;;;;;5101232;28;20340;-60
2020/12/04 08:03:10;;;;;;;7.75;6.95;;;33.80;48.50;;;;;;5102052;28;20278;-59
2020/12/04 08:05:40;;;;;;;8.35;7.57;;;34.00;48.30;;;;;;5100710;28;20219;-60
2020/12/04 08:08:11;;;;;;;8.68;7.88;;;34.00;48.10;;;;;;5102858;28;20236;-59
2020/12/04 08:10:42;;;;;;;8.32;7.55;;;34.00;48.00;;;;;;5099026;28;20311;-61
2020/12/04 08:13:14;;;;;;;8.38;7.65;;;34.10;47.70;;;;;;5100555;27;20221;-61
2020/12/04 08:15:44;;;;;;;8.13;7.35;;;34.10;47.70;;;;;;5096476;28;20281;-59
2020/12/04 08:18:15;;;;;;;8.48;7.65;;;34.10;48.10;;;;;;5107970;28;20629;-61
2020/12/04 08:20:46;;;;;;;8.57;7.80;;;34.10;47.70;;;;;;5027851;28;20234;-60
2020/12/04 08:23:23;;;;;;;8.45;7.68;;;34.10;47.40;;;;;;5027011;28;20241;-61
2020/12/04 08:25:54;;;;;;;10.77;7.85;;;34.10;47.20;;;;;;5012676;28;20238;-59
2020/12/04 08:28:26;;;;;;;9.25;8.25;;;34.10;47.60;;;;;;5026409;28;20238;-61
2020/12/04 08:30:57;;;;;;;8.48;7.68;;;34.10;47.40;;;;;;5017814;28;20792;-60
2020/12/04 08:33:29;;;;;;;8.18;7.50;;;34.10;47.40;;;;;;5010187;28;20640;-61
2020/12/04 08:35:59;;;;;;;8.45;7.70;;;34.10;47.10;;;;;;5011157;28;20235;-61
2020/12/04 08:38:30;;;;;;;8.60;7.88;;;34.10;47.00;;;;;;5018551;28;20588;-61
2020/12/04 08:41:01;;;;;;;7.72;7.13;;;34.10;46.90;;;;;;5017635;28;20231;-61
2020/12/04 08:43:33;;;;;;;8.95;8.15;;;34.10;47.10;;;;;;5015379;28;20625;-61
2020/12/04 08:46:09;;;;;;;8.45;7.75;;;34.10;46.90;;;;;;4982171;28;20234;-60
2020/12/04 08:48:41;;;;;;;8.73;7.82;;;34.10;47.00;;;;;;4946762;29;20260;-60
2020/12/04 08:51:12;;;;;;;9.50;8.60;;;34.20;47.30;;;;;;4963283;28;20227;-60
2020/12/04 08:53:43;;;;;;;8.88;8.07;;;34.10;47.00;;;;;;5021260;28;20223;-61
2020/12/04 08:56:13;;;;;;;8.05;7.25;;;34.10;46.70;;;;;;5024760;28;20281;-61
2020/12/04 08:58:48;;;;;;;8.35;7.55;;;34.20;46.60;;;;;;5021908;28;20234;-61
2020/12/04 09:01:20;;;;;;;9.00;7.68;;;34.20;46.30;;;;;;5022312;28;20234;-61
2020/12/04 09:03:57;;;;;;;8.30;7.60;;;34.20;46.20;;;;;;5020471;28;20716;-60
2020/12/04 09:06:27;;;;;;;12.18;8.43;;;34.10;45.90;;;;;;5019093;28;20238;-61
2020/12/04 09:08:58;;;;;;;10.52;8.27;;;34.20;46.00;;;;;;5011671;28;20326;-61
2020/12/04 09:11:32;;;;;;;9.32;8.32;;;34.10;45.90;;;;;;5023888;28;20242;-61
2020/12/04 09:14:04;;;;;;;8.32;7.53;;;34.10;45.90;;;;;;4993951;28;20274;-60
2020/12/04 09:16:35;;;;;;;8.50;7.70;;;34.10;46.10;;;;;;5006412;28;20238;-61
2020/12/04 09:19:06;;;;;;;8.50;7.78;;;34.10;46.20;;;;;;5043877;28;20257;-60
2020/12/04 09:21:36;;;;;;;9.10;7.93;;;34.00;45.80;;;;;;5062518;28;20240;-60
2020/12/04 09:24:07;;;;;;;8.55;7.60;;;34.00;46.10;;;;;;5059975;28;20245;-60
2020/12/04 09:26:39;;;;;;;9.43;8.63;;;34.00;46.30;;;;;;5059414;28;20237;-59
2020/12/04 09:29:10;;;;;;;11.65;7.10;;;34.00;46.00;;;;;;5052734;28;20248;-61
2020/12/04 09:31:41;;;;;;;7.90;7.10;;;34.00;46.20;;;;;;5052609;28;20230;-59
2020/12/04 09:34:12;;;;;;;9.85;8.32;;;33.90;46.30;;;;;;5060351;28;20233;-59
2020/12/04 09:36:43;;;;;;;8.25;7.50;;;34.00;46.30;;;;;;5061520;28;20222;-56
2020/12/04 09:39:13;;;;;;;9.07;8.27;;;34.00;46.20;;;;;;5058729;28;20237;-60
2020/12/04 09:41:44;;;;;;;9.57;8.68;;;34.00;46.20;;;;;;5061502;28;20260;-60
2020/12/04 09:44:15;;;;;;;8.20;7.47;;;34.00;46.00;;;;;;5056802;28;20228;-60
2020/12/04 09:46:46;;;;;;;10.60;9.65;;;34.00;46.00;;;;;;5101165;28;20703;-60
2020/12/04 09:49:17;;;;;;;9.85;8.95;;;34.00;46.00;;;;;;5093699;28;20226;-60
2020/12/04 09:51:47;;;;;;;10.30;9.30;;;34.00;45.90;;;;;;5098057;28;20229;-60
2020/12/04 09:54:18;;;;;;;9.23;8.32;;;33.90;45.80;;;;;;5099068;28;20224;-59
2020/12/04 09:56:48;;;;;;;9.82;8.82;;;33.90;45.60;;;;;;5090314;28;20233;-59
2020/12/04 09:59:20;;;;;;;16.15;8.60;;;33.80;45.60;;;;;;5106155;28;20235;-60
2020/12/04 10:01:51;;;;;;;9.13;8.23;;;33.90;45.60;;;;;;5080344;28;20235;-60
2020/12/04 10:04:23;;;;;;;9.55;8.65;;;33.80;45.70;;;;;;5101619;28;20227;-61
2020/12/04 10:06:54;;;;;;;9.20;8.38;;;33.90;46.00;;;;;;5093481;28;20228;-59
2020/12/04 10:09:24;;;;;;;9.18;8.27;;;34.00;46.10;;;;;;5094421;28;20223;-58
2020/12/04 10:11:55;;;;;;;10.50;9.40;;;34.10;46.00;;;;;;5101555;27;20236;-61
2020/12/04 10:14:27;;;;;;;8.52;7.72;;;34.30;45.80;;;;;;5113039;27;20224;-60
2020/12/04 10:16:57;;;;;;;8.45;7.65;;;34.60;45.50;;;;;;5094565;27;20228;-60
2020/12/04 10:19:28;;;;;;;8.68;7.63;;;34.80;45.20;;;;;;5096316;27;20702;-60
2020/12/04 10:21:59;;;;;;;10.32;8.23;;;35.00;44.70;;;;;;5099676;28;20725;-60
2020/12/04 10:24:30;;;;;;;8.48;7.68;;;35.20;44.10;;;;;;5095910;28;20239;-60
2020/12/04 10:27:01;;;;;;;8.65;7.75;;;35.30;44.20;;;;;;5097914;28;20237;-60
2020/12/04 10:29:33;;;;;;;8.27;7.40;;;35.40;43.90;;;;;;5100974;28;20232;-59
2020/12/04 10:32:03;;;;;;;8.68;7.88;;;35.50;43.90;;;;;;5098919;28;20691;-60
2020/12/04 10:34:34;;;;;;;8.80;7.97;;;35.40;43.60;;;;;;5103484;27;20276;-59
2020/12/04 10:37:04;;;;;;;9.68;8.77;;;35.40;43.60;;;;;;5089961;27;20231;-59
2020/12/04 10:39:35;;;;;;;9.02;8.23;;;35.30;43.30;;;;;;5093931;28;20224;-60
2020/12/04 10:42:07;;;;;;;9.65;8.57;;;35.20;43.40;;;;;;5096567;27;20231;-61
2020/12/04 10:44:52;;;;;;;8.75;7.95;;;34.90;43.50;;;;;;5095812;28;20239;-60
2020/12/04 10:47:23;;;;;;;9.38;8.48;;;34.70;43.90;;;;;;5103880;27;20232;-60
2020/12/04 10:49:53;;;;;;;9.45;8.32;;;34.50;44.20;;;;;;5093443;28;20656;-59
2020/12/04 10:52:24;;;;;;;9.73;8.82;;;34.30;44.40;;;;;;5095450;28;20783;-60
2020/12/04 10:54:54;;;;;;;10.10;9.15;;;34.10;44.80;;;;;;5092414;28;20785;-58
2020/12/04 10:57:25;;;;;;;11.23;9.65;;;33.90;45.10;;;;;;5114510;28;20291;-58
2020/12/04 10:59:57;;;;;;;9.13;8.15;;;33.70;45.30;;;;;;5103476;28;20311;-61
2020/12/04 11:02:29;;;;;;;9.50;8.60;;;33.50;45.80;;;;;;5099177;28;20279;-61
2020/12/04 11:07:47;;;;;;;9.15;8.25;;;33.20;46.30;;;;;;5089078;28;20239;-60
2020/12/04 11:10:18;;;;;;;8.88;8.00;;;33.00;46.70;;;;;;5093273;28;20229;-60
2020/12/04 11:12:48;;;;;;;9.07;8.13;;;32.90;47.60;;;;;;5098247;28;20759;-59
2020/12/04 11:15:20;;;;;;;8.48;7.68;;;32.80;47.20;;;;;;5104604;28;20231;-61
2020/12/04 11:17:52;;;;;;;8.73;7.93;;;32.70;47.40;;;;;;5104075;28;20224;-60
2020/12/04 11:20:23;;;;;;;9.50;8.52;;;32.60;47.90;;;;;;5100197;28;20224;-60
2020/12/04 11:22:54;;;;;;;10.30;9.20;;;32.50;48.10;;;;;;5097405;28;20250;-59
2020/12/04 11:25:24;;;;;;;10.02;8.90;;;32.50;48.30;;;;;;5094298;28;20232;-60
2020/12/04 11:27:55;;;;;;;10.73;9.20;;;32.30;48.50;;;;;;5098944;28;20219;-61
2020/12/04 11:30:26;;;;;;;10.07;8.30;;;32.30;48.60;;;;;;5100994;28;20270;-60
2020/12/04 11:32:57;;;;;;;10.15;9.15;;;32.20;48.70;;;;;;5096278;28;20247;-60
2020/12/04 11:35:27;;;;;;;8.75;7.88;;;32.10;48.80;;;;;;5100156;28;20239;-60
2020/12/04 11:37:59;;;;;;;9.65;8.75;;;32.00;49.10;;;;;;5103022;28;20231;-60
2020/12/04 11:40:29;;;;;;;9.25;8.32;;;32.00;49.40;;;;;;5103503;27;20243;-60
2020/12/04 11:43:01;;;;;;;11.65;9.10;;;31.90;49.50;;;;;;5102763;28;20228;-59
2020/12/04 11:45:32;;;;;;;10.30;9.27;;;31.90;49.50;;;;;;5102548;28;20748;-60
2020/12/04 11:48:03;;;;;;;10.45;9.18;;;31.80;49.70;;;;;;5105251;28;20228;-59
2020/12/04 11:50:33;;;;;;;10.13;9.07;;;31.70;50.00;;;;;;5099034;28;20323;-59
2020/12/04 11:53:04;;;;;;;10.55;9.27;;;31.70;50.30;;;;;;5102396;28;20235;-60
2020/12/04 11:55:37;;;;;;;10.82;9.75;;;31.60;50.40;;;;;;5099258;28;20243;-58
2020/12/04 11:58:07;;;;;;;11.05;9.95;;;31.60;50.70;;;;;;5103604;28;20282;-59
2020/12/04 12:00:39;;;;;;;13.00;10.75;;;31.50;50.80;;;;;;5096120;28;20273;-57
2020/12/04 12:03:10;;;;;;;11.10;10.10;;;31.40;51.00;;;;;;5101386;27;20232;-60
2020/12/04 12:05:41;;;;;;;11.90;10.35;;;31.40;51.10;;;;;;5104343;28;20302;-61
2020/12/04 12:08:11;;;;;;;11.65;10.60;;;31.30;51.90;;;;;;5100686;28;20687;-59
2020/12/04 12:10:45;;;;;;;12.52;10.93;;;31.30;51.10;;;;;;5092170;28;20219;-59
2020/12/04 12:13:16;;;;;;;11.90;10.70;;;31.30;51.20;;;;;;5105150;28;20239;-59
2020/12/04 12:15:47;;;;;;;11.68;10.57;;;31.20;51.20;;;;;;5106107;27;20224;-62
2020/12/04 12:18:19;;;;;;;11.27;10.10;;;31.10;51.20;;;;;;5100914;27;20710;-59
2020/12/04 12:20:49;;;;;;;10.63;9.50;;;31.10;51.30;;;;;;5097093;28;20246;-57
2020/12/04 12:23:19;;;;;;;11.35;10.35;;;31.10;51.50;;;;;;5099517;28;20230;-59
2020/12/04 12:25:50;;;;;;;10.48;9.48;;;31.00;51.70;;;;;;5104817;27;20225;-60
2020/12/04 12:28:20;;;;;;;10.50;9.55;;;31.00;51.90;;;;;;5100377;28;20227;-59
2020/12/04 12:30:52;;;;;;;11.38;10.23;;;30.90;52.10;;;;;;5096483;28;20560;-59
2020/12/04 12:33:23;;;;;;;11.65;10.45;;;30.90;52.20;;;;;;5103539;27;20234;-58
2020/12/04 12:35:54;;;;;;;11.18;9.98;;;30.80;52.10;;;;;;5105972;28;20224;-59
2020/12/04 12:38:24;;;;;;;11.95;10.75;;;30.80;52.40;;;;;;5100227;28;20242;-60
2020/12/04 12:40:54;;;;;;;11.02;10.02;;;30.70;52.30;;;;;;5103333;28;20232;-59
2020/12/04 12:43:25;;;;;;;11.32;10.23;;;30.70;52.30;;;;;;5102903;27;20304;-60
2020/12/04 12:45:56;;;;;;;11.38;10.27;;;30.70;52.50;;;;;;5099965;28;20595;-58
2020/12/04 12:48:26;;;;;;;12.10;10.85;;;30.60;53.00;;;;;;5104212;27;20241;-59
2020/12/04 12:50:57;;;;;;;11.48;10.38;;;30.60;52.40;;;;;;5106271;28;20232;-59
2020/12/04 12:53:28;;;;;;;11.75;10.25;;;30.60;52.60;;;;;;5099582;28;20694;-61
2020/12/04 12:55:59;;;;;;;11.30;10.20;;;30.50;52.50;;;;;;5102040;28;20224;-60
2020/12/04 12:58:29;;;;;;;10.63;9.63;;;30.40;52.80;;;;;;5098391;28;20232;-60
2020/12/04 13:01:01;;;;;;;11.15;10.15;;;30.40;52.90;;;;;;5101714;28;20227;-59
2020/12/04 13:03:31;;;;;;;13.30;10.93;;;30.40;52.90;;;;;;5100581;27;20220;-60
2020/12/04 13:06:02;;;;;;;11.60;10.43;;;30.30;52.80;;;;;;5102905;28;20224;-60